sensor_id;sensor_type;location;lat;lon;timestamp;temperature;humidity
12708;DHT22;6418;50.824;4.718;2022-10-31T00:01:47;13.70;99.90
12708;DHT22;6418;50.824;4.718;2022-10-31T00:04:13;13.70;99.90
12708;DHT22;6418;50.824;4.718;2022-10-31T00:06:42;13.70;99.90
12708;DHT22;6418;50.824;4.718;2022-10-31T00:09:10;13.70;99.90
12708;DHT22;6418;50.824;4.718;2022-10-31T00:11:37;13.70;99.90
12708;DHT22;6418;50.824;4.718;2022-10-31T00:14:04;13.70;99.90
12708;DHT22;6418;50.824;4.718;2022-10-31T00:16:31;13.70;99.90
12708;DHT22;6418;50.824;4.718;2022-10-31T00:19:00;13.70;99.90
12708;DHT22;6418;50.824;4.718;2022-10-31T00:21:27;13.70;99.90
12708;DHT22;6418;50.824;4.718;2022-10-31T00:23:56;13.70;99.90
12708;DHT22;6418;50.824;4.718;2022-10-31T00:26:23;13.70;99.90
12708;DHT22;6418;50.824;4.718;2022-10-31T00:28:50;13.70;99.90
12708;DHT22;6418;50.824;4.718;2022-10-31T00:31:17;13.60;99.90
12708;DHT22;6418;50.824;4.718;2022-10-31T00:33:44;13.60;99.90
12708;DHT22;6418;50.824;4.718;2022-10-31T00:36:12;13.60;99.90
12708;DHT22;6418;50.824;4.718;2022-10-31T00:38:40;13.60;99.90
12708;DHT22;6418;50.824;4.718;2022-10-31T00:41:08;13.60;99.90
12708;DHT22;6418;50.824;4.718;2022-10-31T00:43:35;13.60;99.90
12708;DHT22;6418;50.824;4.718;2022-10-31T00:46:02;13.50;99.90
12708;DHT22;6418;50.824;4.718;2022-10-31T00:48:29;13.50;99.90
12708;DHT22;6418;50.824;4.718;2022-10-31T00:50:57;13.50;99.90
12708;DHT22;6418;50.824;4.718;2022-10-31T00:53:24;13.50;99.90
12708;DHT22;6418;50.824;4.718;2022-10-31T00:55:50;13.50;99.90
12708;DHT22;6418;50.824;4.718;2022-10-31T00:58:19;13.50;99.90
12708;DHT22;6418;50.824;4.718;2022-10-31T01:00:47;13.50;99.90
12708;DHT22;6418;50.824;4.718;2022-10-31T01:03:20;13.30;99.90
12708;DHT22;6418;50.824;4.718;2022-10-31T01:05:58;13.40;99.90
12708;DHT22;6418;50.824;4.718;2022-10-31T01:08:26;13.40;99.90
12708;DHT22;6418;50.824;4.718;2022-10-31T01:11:06;13.40;99.90
12708;DHT22;6418;50.824;4.718;2022-10-31T01:13:35;13.40;99.90
12708;DHT22;6418;50.824;4.718;2022-10-31T01:16:04;13.30;99.90
12708;DHT22;6418;50.824;4.718;2022-10-31T01:18:31;13.30;99.90
12708;DHT22;6418;50.824;4.718;2022-10-31T01:21:00;13.30;99.90
12708;DHT22;6418;50.824;4.718;2022-10-31T01:23:28;13.30;99.90
12708;DHT22;6418;50.824;4.718;2022-10-31T01:26:03;13.30;99.90
12708;DHT22;6418;50.824;4.718;2022-10-31T01:28:31;13.30;99.90
12708;DHT22;6418;50.824;4.718;2022-10-31T01:31:02;13.20;99.90
12708;DHT22;6418;50.824;4.718;2022-10-31T01:33:29;13.20;99.90
12708;DHT22;6418;50.824;4.718;2022-10-31T01:35:56;13.20;99.90
12708;DHT22;6418;50.824;4.718;2022-10-31T01:38:23;13.20;99.90
12708;DHT22;6418;50.824;4.718;2022-10-31T01:40:50;13.20;99.90
12708;DHT22;6418;50.824;4.718;2022-10-31T01:43:18;13.10;99.90
12708;DHT22;6418;50.824;4.718;2022-10-31T01:45:51;13.10;99.90
12708;DHT22;6418;50.824;4.718;2022-10-31T01:48:24;13.10;99.90
12708;DHT22;6418;50.824;4.718;2022-10-31T01:50:54;13.10;99.90
12708;DHT22;6418;50.824;4.718;2022-10-31T01:53:22;13.10;99.90
12708;DHT22;6418;50.824;4.718;2022-10-31T01:55:50;13.00;99.90
12708;DHT22;6418;50.824;4.718;2022-10-31T01:58:20;13.00;99.90
12708;DHT22;6418;50.824;4.718;2022-10-31T02:00:51;13.00;99.90
12708;DHT22;6418;50.824;4.718;2022-10-31T02:03:22;13.00;99.90
12708;DHT22;6418;50.824;4.718;2022-10-31T02:05:50;12.80;99.90
12708;DHT22;6418;50.824;4.718;2022-10-31T02:08:23;12.80;99.90
12708;DHT22;6418;50.824;4.718;2022-10-31T02:10:52;12.80;99.90
12708;DHT22;6418;50.824;4.718;2022-10-31T02:13:20;12.80;99.90
12708;DHT22;6418;50.824;4.718;2022-10-31T02:15:51;12.70;99.90
12708;DHT22;6418;50.824;4.718;2022-10-31T02:18:18;12.70;99.90
12708;DHT22;6418;50.824;4.718;2022-10-31T02:20:57;12.60;99.90
12708;DHT22;6418;50.824;4.718;2022-10-31T02:23:53;12.60;99.90
12708;DHT22;6418;50.824;4.718;2022-10-31T02:26:58;12.50;99.90
12708;DHT22;6418;50.824;4.718;2022-10-31T02:29:54;12.40;99.90
12708;DHT22;6418;50.824;4.718;2022-10-31T02:32:29;12.50;99.90
12708;DHT22;6418;50.824;4.718;2022-10-31T02:35:09;12.40;99.90
12708;DHT22;6418;50.824;4.718;2022-10-31T02:37:38;12.30;99.90
12708;DHT22;6418;50.824;4.718;2022-10-31T02:40:14;12.30;99.90
12708;DHT22;6418;50.824;4.718;2022-10-31T02:42:49;12.30;99.90
12708;DHT22;6418;50.824;4.718;2022-10-31T02:45:24;12.20;99.90
12708;DHT22;6418;50.824;4.718;2022-10-31T02:47:56;12.20;99.90
12708;DHT22;6418;50.824;4.718;2022-10-31T02:50:27;12.20;99.90
12708;DHT22;6418;50.824;4.718;2022-10-31T02:52:55;12.20;99.90
12708;DHT22;6418;50.824;4.718;2022-10-31T02:55:49;12.20;99.90
12708;DHT22;6418;50.824;4.718;2022-10-31T02:58:20;12.20;99.90
12708;DHT22;6418;50.824;4.718;2022-10-31T03:00:58;12.20;99.90
12708;DHT22;6418;50.824;4.718;2022-10-31T03:03:35;12.20;99.90
12708;DHT22;6418;50.824;4.718;2022-10-31T03:06:10;12.20;99.90
12708;DHT22;6418;50.824;4.718;2022-10-31T03:08:45;12.10;99.90
12708;DHT22;6418;50.824;4.718;2022-10-31T03:11:18;12.10;99.90
12708;DHT22;6418;50.824;4.718;2022-10-31T03:13:52;12.10;99.90
12708;DHT22;6418;50.824;4.718;2022-10-31T03:16:34;12.10;99.90
12708;DHT22;6418;50.824;4.718;2022-10-31T03:19:08;12.10;99.90
12708;DHT22;6418;50.824;4.718;2022-10-31T03:21:39;12.10;99.90
12708;DHT22;6418;50.824;4.718;2022-10-31T03:24:08;12.10;99.90
12708;DHT22;6418;50.824;4.718;2022-10-31T03:26:39;12.00;99.90
12708;DHT22;6418;50.824;4.718;2022-10-31T03:29:10;12.10;99.90
12708;DHT22;6418;50.824;4.718;2022-10-31T03:31:42;12.10;99.90
12708;DHT22;6418;50.824;4.718;2022-10-31T03:34:12;12.10;99.90
12708;DHT22;6418;50.824;4.718;2022-10-31T03:36:40;12.10;99.90
12708;DHT22;6418;50.824;4.718;2022-10-31T03:39:11;12.10;99.90
12708;DHT22;6418;50.824;4.718;2022-10-31T03:41:42;12.10;99.90
12708;DHT22;6418;50.824;4.718;2022-10-31T03:44:13;12.10;99.90
12708;DHT22;6418;50.824;4.718;2022-10-31T03:46:42;12.00;99.90
12708;DHT22;6418;50.824;4.718;2022-10-31T03:49:11;12.00;99.90
12708;DHT22;6418;50.824;4.718;2022-10-31T03:51:41;12.00;99.90
12708;DHT22;6418;50.824;4.718;2022-10-31T03:54:14;12.50;99.90
12708;DHT22;6418;50.824;4.718;2022-10-31T03:56:47;12.00;99.90
12708;DHT22;6418;50.824;4.718;2022-10-31T03:59:19;12.10;99.90
12708;DHT22;6418;50.824;4.718;2022-10-31T04:01:51;12.10;99.90
12708;DHT22;6418;50.824;4.718;2022-10-31T04:04:21;12.10;99.90
12708;DHT22;6418;50.824;4.718;2022-10-31T04:06:49;12.00;99.90
12708;DHT22;6418;50.824;4.718;2022-10-31T04:09:17;12.00;99.90
12708;DHT22;6418;50.824;4.718;2022-10-31T04:11:50;12.00;99.90
12708;DHT22;6418;50.824;4.718;2022-10-31T04:14:18;12.00;99.90
12708;DHT22;6418;50.824;4.718;2022-10-31T04:16:45;12.00;99.90
12708;DHT22;6418;50.824;4.718;2022-10-31T04:19:13;12.00;99.90
12708;DHT22;6418;50.824;4.718;2022-10-31T04:21:42;11.90;99.90
12708;DHT22;6418;50.824;4.718;2022-10-31T04:24:10;11.90;99.90
12708;DHT22;6418;50.824;4.718;2022-10-31T04:26:37;12.10;99.90
12708;DHT22;6418;50.824;4.718;2022-10-31T04:29:04;11.90;99.90
12708;DHT22;6418;50.824;4.718;2022-10-31T04:31:31;11.90;99.90
12708;DHT22;6418;50.824;4.718;2022-10-31T04:33:58;11.90;99.90
12708;DHT22;6418;50.824;4.718;2022-10-31T04:36:24;11.80;99.90
12708;DHT22;6418;50.824;4.718;2022-10-31T04:38:53;11.80;99.90
12708;DHT22;6418;50.824;4.718;2022-10-31T04:41:20;11.80;99.90
12708;DHT22;6418;50.824;4.718;2022-10-31T04:43:47;11.80;99.90
12708;DHT22;6418;50.824;4.718;2022-10-31T04:46:13;11.80;99.90
12708;DHT22;6418;50.824;4.718;2022-10-31T04:48:40;11.70;99.90
12708;DHT22;6418;50.824;4.718;2022-10-31T04:51:07;11.80;99.90
12708;DHT22;6418;50.824;4.718;2022-10-31T04:53:34;11.70;99.90
12708;DHT22;6418;50.824;4.718;2022-10-31T04:56:03;11.70;99.90
12708;DHT22;6418;50.824;4.718;2022-10-31T04:58:30;11.70;99.90
12708;DHT22;6418;50.824;4.718;2022-10-31T05:00:57;11.70;99.90
12708;DHT22;6418;50.824;4.718;2022-10-31T05:03:24;11.70;99.90
12708;DHT22;6418;50.824;4.718;2022-10-31T05:05:50;11.70;99.90
12708;DHT22;6418;50.824;4.718;2022-10-31T05:08:17;11.80;99.90
12708;DHT22;6418;50.824;4.718;2022-10-31T05:10:44;11.70;99.90
12708;DHT22;6418;50.824;4.718;2022-10-31T05:13:13;11.70;99.90
12708;DHT22;6418;50.824;4.718;2022-10-31T05:15:41;12.00;99.90
12708;DHT22;6418;50.824;4.718;2022-10-31T05:18:08;11.70;99.90
12708;DHT22;6418;50.824;4.718;2022-10-31T05:20:35;11.70;99.90
12708;DHT22;6418;50.824;4.718;2022-10-31T05:23:01;11.70;99.90
12708;DHT22;6418;50.824;4.718;2022-10-31T05:25:29;11.70;99.90
12708;DHT22;6418;50.824;4.718;2022-10-31T05:27:56;11.70;99.90
12708;DHT22;6418;50.824;4.718;2022-10-31T05:30:26;11.70;99.90
12708;DHT22;6418;50.824;4.718;2022-10-31T05:32:55;11.70;99.90
12708;DHT22;6418;50.824;4.718;2022-10-31T05:35:24;11.70;99.90
12708;DHT22;6418;50.824;4.718;2022-10-31T05:37:51;11.70;99.90
12708;DHT22;6418;50.824;4.718;2022-10-31T05:40:19;11.80;99.90
12708;DHT22;6418;50.824;4.718;2022-10-31T05:42:47;11.80;99.90
12708;DHT22;6418;50.824;4.718;2022-10-31T05:45:15;11.80;99.90
12708;DHT22;6418;50.824;4.718;2022-10-31T05:47:50;11.80;99.90
12708;DHT22;6418;50.824;4.718;2022-10-31T05:50:17;11.80;99.90
12708;DHT22;6418;50.824;4.718;2022-10-31T05:52:44;11.80;99.90
12708;DHT22;6418;50.824;4.718;2022-10-31T05:55:11;11.80;99.90
12708;DHT22;6418;50.824;4.718;2022-10-31T05:57:38;11.80;99.90
12708;DHT22;6418;50.824;4.718;2022-10-31T06:00:06;11.90;99.90
12708;DHT22;6418;50.824;4.718;2022-10-31T06:02:33;11.90;99.90
12708;DHT22;6418;50.824;4.718;2022-10-31T06:05:01;11.80;99.90
12708;DHT22;6418;50.824;4.718;2022-10-31T06:07:32;11.90;99.90
12708;DHT22;6418;50.824;4.718;2022-10-31T06:09:59;11.80;99.90
12708;DHT22;6418;50.824;4.718;2022-10-31T06:12:26;11.80;99.90
12708;DHT22;6418;50.824;4.718;2022-10-31T06:14:53;11.90;99.90
12708;DHT22;6418;50.824;4.718;2022-10-31T06:17:20;11.80;99.90
12708;DHT22;6418;50.824;4.718;2022-10-31T06:19:47;12.00;99.90
12708;DHT22;6418;50.824;4.718;2022-10-31T06:22:15;11.80;99.90
12708;DHT22;6418;50.824;4.718;2022-10-31T06:24:42;11.80;99.90
12708;DHT22;6418;50.824;4.718;2022-10-31T06:27:09;11.80;99.90
12708;DHT22;6418;50.824;4.718;2022-10-31T06:29:36;11.90;99.90
12708;DHT22;6418;50.824;4.718;2022-10-31T06:32:03;11.90;99.90
12708;DHT22;6418;50.824;4.718;2022-10-31T06:34:30;11.90;99.90
12708;DHT22;6418;50.824;4.718;2022-10-31T06:36:57;11.90;99.90
12708;DHT22;6418;50.824;4.718;2022-10-31T06:39:25;11.90;99.90
12708;DHT22;6418;50.824;4.718;2022-10-31T06:41:52;11.90;99.90
12708;DHT22;6418;50.824;4.718;2022-10-31T06:44:19;11.90;99.90
12708;DHT22;6418;50.824;4.718;2022-10-31T06:46:46;11.90;99.90
12708;DHT22;6418;50.824;4.718;2022-10-31T06:49:13;11.90;99.90
12708;DHT22;6418;50.824;4.718;2022-10-31T06:51:40;11.90;99.90
12708;DHT22;6418;50.824;4.718;2022-10-31T06:54:07;11.90;99.90
12708;DHT22;6418;50.824;4.718;2022-10-31T06:56:36;11.90;99.90
12708;DHT22;6418;50.824;4.718;2022-10-31T06:59:03;11.90;99.90
12708;DHT22;6418;50.824;4.718;2022-10-31T07:01:30;11.90;99.90
12708;DHT22;6418;50.824;4.718;2022-10-31T07:03:57;12.00;99.90
12708;DHT22;6418;50.824;4.718;2022-10-31T07:06:24;12.00;99.90
12708;DHT22;6418;50.824;4.718;2022-10-31T07:08:51;12.00;99.90
12708;DHT22;6418;50.824;4.718;2022-10-31T07:11:18;12.10;99.90
12708;DHT22;6418;50.824;4.718;2022-10-31T07:13:46;12.00;99.90
12708;DHT22;6418;50.824;4.718;2022-10-31T07:16:13;12.10;99.90
12708;DHT22;6418;50.824;4.718;2022-10-31T07:18:40;12.00;99.90
12708;DHT22;6418;50.824;4.718;2022-10-31T07:21:07;12.10;99.90
12708;DHT22;6418;50.824;4.718;2022-10-31T07:23:34;12.20;99.90
12708;DHT22;6418;50.824;4.718;2022-10-31T07:26:01;12.20;99.90
12708;DHT22;6418;50.824;4.718;2022-10-31T07:28:28;12.20;99.90
12708;DHT22;6418;50.824;4.718;2022-10-31T07:30:57;12.20;99.90
12708;DHT22;6418;50.824;4.718;2022-10-31T07:33:24;12.60;99.90
12708;DHT22;6418;50.824;4.718;2022-10-31T07:35:52;12.30;99.90
12708;DHT22;6418;50.824;4.718;2022-10-31T07:38:20;12.30;99.90
12708;DHT22;6418;50.824;4.718;2022-10-31T07:40:50;12.30;99.90
12708;DHT22;6418;50.824;4.718;2022-10-31T07:43:17;12.30;99.90
12708;DHT22;6418;50.824;4.718;2022-10-31T07:45:49;12.40;99.90
12708;DHT22;6418;50.824;4.718;2022-10-31T07:48:18;12.40;99.90
12708;DHT22;6418;50.824;4.718;2022-10-31T07:50:45;12.50;99.90
12708;DHT22;6418;50.824;4.718;2022-10-31T07:53:14;12.60;99.90
12708;DHT22;6418;50.824;4.718;2022-10-31T07:55:41;12.60;99.90
12708;DHT22;6418;50.824;4.718;2022-10-31T07:58:12;12.60;99.90
12708;DHT22;6418;50.824;4.718;2022-10-31T08:00:40;12.60;99.90
12708;DHT22;6418;50.824;4.718;2022-10-31T08:03:09;12.70;99.90
12708;DHT22;6418;50.824;4.718;2022-10-31T08:05:38;12.70;99.90
12708;DHT22;6418;50.824;4.718;2022-10-31T08:08:06;12.80;99.90
12708;DHT22;6418;50.824;4.718;2022-10-31T08:10:34;12.80;99.90
12708;DHT22;6418;50.824;4.718;2022-10-31T08:13:03;12.90;99.90
12708;DHT22;6418;50.824;4.718;2022-10-31T08:15:30;13.00;99.90
12708;DHT22;6418;50.824;4.718;2022-10-31T08:17:57;13.00;99.90
12708;DHT22;6418;50.824;4.718;2022-10-31T08:20:24;13.10;99.90
12708;DHT22;6418;50.824;4.718;2022-10-31T08:23:01;13.10;99.90
12708;DHT22;6418;50.824;4.718;2022-10-31T08:25:30;13.10;99.90
12708;DHT22;6418;50.824;4.718;2022-10-31T08:27:57;13.20;99.90
12708;DHT22;6418;50.824;4.718;2022-10-31T08:30:26;13.30;99.90
12708;DHT22;6418;50.824;4.718;2022-10-31T08:33:00;13.30;99.90
12708;DHT22;6418;50.824;4.718;2022-10-31T08:35:28;13.20;99.90
12708;DHT22;6418;50.824;4.718;2022-10-31T08:37:55;13.30;99.90
12708;DHT22;6418;50.824;4.718;2022-10-31T08:40:24;13.40;99.90
12708;DHT22;6418;50.824;4.718;2022-10-31T08:42:56;13.40;99.90
12708;DHT22;6418;50.824;4.718;2022-10-31T08:45:24;13.50;99.90
12708;DHT22;6418;50.824;4.718;2022-10-31T08:47:51;13.50;99.90
12708;DHT22;6418;50.824;4.718;2022-10-31T08:50:18;13.50;99.90
12708;DHT22;6418;50.824;4.718;2022-10-31T08:52:45;13.60;99.90
12708;DHT22;6418;50.824;4.718;2022-10-31T08:55:12;13.60;99.90
12708;DHT22;6418;50.824;4.718;2022-10-31T08:57:40;13.60;99.90
12708;DHT22;6418;50.824;4.718;2022-10-31T09:00:08;13.70;99.90
12708;DHT22;6418;50.824;4.718;2022-10-31T09:02:35;13.70;99.90
12708;DHT22;6418;50.824;4.718;2022-10-31T09:05:04;13.70;99.90
12708;DHT22;6418;50.824;4.718;2022-10-31T09:07:31;13.80;99.90
12708;DHT22;6418;50.824;4.718;2022-10-31T09:09:58;13.80;99.90
12708;DHT22;6418;50.824;4.718;2022-10-31T09:12:25;13.90;99.90
12708;DHT22;6418;50.824;4.718;2022-10-31T09:14:53;13.90;99.90
12708;DHT22;6418;50.824;4.718;2022-10-31T09:17:20;14.00;99.90
12708;DHT22;6418;50.824;4.718;2022-10-31T09:19:47;14.00;99.90
12708;DHT22;6418;50.824;4.718;2022-10-31T09:22:14;14.10;99.90
12708;DHT22;6418;50.824;4.718;2022-10-31T09:24:41;14.10;99.90
12708;DHT22;6418;50.824;4.718;2022-10-31T09:27:08;14.30;99.90
12708;DHT22;6418;50.824;4.718;2022-10-31T09:29:35;14.20;99.90
12708;DHT22;6418;50.824;4.718;2022-10-31T09:32:03;14.30;99.90
12708;DHT22;6418;50.824;4.718;2022-10-31T09:34:30;14.40;99.90
12708;DHT22;6418;50.824;4.718;2022-10-31T09:36:57;14.40;99.90
12708;DHT22;6418;50.824;4.718;2022-10-31T09:39:24;14.50;99.90
12708;DHT22;6418;50.824;4.718;2022-10-31T09:42:26;14.50;99.90
12708;DHT22;6418;50.824;4.718;2022-10-31T09:45:01;14.60;99.90
12708;DHT22;6418;50.824;4.718;2022-10-31T09:47:39;14.70;99.90
12708;DHT22;6418;50.824;4.718;2022-10-31T09:50:15;14.70;99.90
12708;DHT22;6418;50.824;4.718;2022-10-31T09:52:50;14.80;99.90
12708;DHT22;6418;50.824;4.718;2022-10-31T09:55:24;14.80;99.90
12708;DHT22;6418;50.824;4.718;2022-10-31T09:57:53;14.90;99.90
12708;DHT22;6418;50.824;4.718;2022-10-31T10:00:22;15.00;99.90
12708;DHT22;6418;50.824;4.718;2022-10-31T10:02:56;15.10;99.90
12708;DHT22;6418;50.824;4.718;2022-10-31T10:05:27;15.10;99.90
12708;DHT22;6418;50.824;4.718;2022-10-31T10:08:00;15.20;99.90
12708;DHT22;6418;50.824;4.718;2022-10-31T10:10:39;15.20;99.90
12708;DHT22;6418;50.824;4.718;2022-10-31T10:13:32;15.30;99.90
12708;DHT22;6418;50.824;4.718;2022-10-31T10:16:11;15.40;99.90
12708;DHT22;6418;50.824;4.718;2022-10-31T10:18:52;15.40;99.90
12708;DHT22;6418;50.824;4.718;2022-10-31T10:21:28;15.40;99.90
12708;DHT22;6418;50.824;4.718;2022-10-31T10:24:12;15.30;99.90
12708;DHT22;6418;50.824;4.718;2022-10-31T10:26:43;15.50;99.90
12708;DHT22;6418;50.824;4.718;2022-10-31T10:29:27;15.50;99.90
12708;DHT22;6418;50.824;4.718;2022-10-31T10:31:58;15.50;99.90
12708;DHT22;6418;50.824;4.718;2022-10-31T10:34:31;15.50;99.90
12708;DHT22;6418;50.824;4.718;2022-10-31T10:37:03;15.50;99.90
12708;DHT22;6418;50.824;4.718;2022-10-31T10:39:35;15.60;99.90
12708;DHT22;6418;50.824;4.718;2022-10-31T10:42:09;15.60;99.90
12708;DHT22;6418;50.824;4.718;2022-10-31T10:44:55;15.70;99.90
12708;DHT22;6418;50.824;4.718;2022-10-31T10:47:41;15.70;99.90
12708;DHT22;6418;50.824;4.718;2022-10-31T10:50:15;15.80;99.90
12708;DHT22;6418;50.824;4.718;2022-10-31T10:52:48;15.90;99.90
12708;DHT22;6418;50.824;4.718;2022-10-31T10:55:27;16.00;99.90
12708;DHT22;6418;50.824;4.718;2022-10-31T10:57:58;16.00;99.90
12708;DHT22;6418;50.824;4.718;2022-10-31T11:00:30;16.10;99.90
12708;DHT22;6418;50.824;4.718;2022-10-31T11:02:58;16.10;99.90
12708;DHT22;6418;50.824;4.718;2022-10-31T11:05:33;16.10;99.90
12708;DHT22;6418;50.824;4.718;2022-10-31T11:08:00;16.20;99.90
12708;DHT22;6418;50.824;4.718;2022-10-31T11:10:28;16.20;99.90
12708;DHT22;6418;50.824;4.718;2022-10-31T11:13:01;16.20;99.90
12708;DHT22;6418;50.824;4.718;2022-10-31T11:15:32;16.30;99.90
12708;DHT22;6418;50.824;4.718;2022-10-31T11:18:00;16.40;99.90
12708;DHT22;6418;50.824;4.718;2022-10-31T11:20:32;16.40;99.90
12708;DHT22;6418;50.824;4.718;2022-10-31T11:23:10;16.50;99.90
12708;DHT22;6418;50.824;4.718;2022-10-31T11:25:48;16.50;99.90
12708;DHT22;6418;50.824;4.718;2022-10-31T11:28:17;16.50;99.90
12708;DHT22;6418;50.824;4.718;2022-10-31T11:30:46;16.60;99.90
12708;DHT22;6418;50.824;4.718;2022-10-31T11:33:26;16.60;99.90
12708;DHT22;6418;50.824;4.718;2022-10-31T11:35:56;16.70;99.90
12708;DHT22;6418;50.824;4.718;2022-10-31T11:38:28;16.70;99.90
12708;DHT22;6418;50.824;4.718;2022-10-31T11:40:59;16.70;99.90
12708;DHT22;6418;50.824;4.718;2022-10-31T11:43:27;16.80;99.90
12708;DHT22;6418;50.824;4.718;2022-10-31T11:45:54;16.70;99.90
12708;DHT22;6418;50.824;4.718;2022-10-31T11:48:23;16.70;99.90
12708;DHT22;6418;50.824;4.718;2022-10-31T11:50:52;16.80;99.90
12708;DHT22;6418;50.824;4.718;2022-10-31T11:53:26;16.80;99.90
12708;DHT22;6418;50.824;4.718;2022-10-31T11:56:03;16.80;99.90
12708;DHT22;6418;50.824;4.718;2022-10-31T11:58:31;16.80;99.90
12708;DHT22;6418;50.824;4.718;2022-10-31T12:00:58;16.80;99.90
12708;DHT22;6418;50.824;4.718;2022-10-31T12:03:44;16.90;99.90
12708;DHT22;6418;50.824;4.718;2022-10-31T12:06:20;16.90;99.90
12708;DHT22;6418;50.824;4.718;2022-10-31T12:08:50;17.00;99.90
12708;DHT22;6418;50.824;4.718;2022-10-31T12:11:43;17.00;99.90
12708;DHT22;6418;50.824;4.718;2022-10-31T12:14:22;17.00;99.90
12708;DHT22;6418;50.824;4.718;2022-10-31T12:16:56;17.10;99.90
12708;DHT22;6418;50.824;4.718;2022-10-31T12:19:35;17.10;99.90
12708;DHT22;6418;50.824;4.718;2022-10-31T12:22:08;17.10;99.90
12708;DHT22;6418;50.824;4.718;2022-10-31T12:24:50;17.20;99.90
12708;DHT22;6418;50.824;4.718;2022-10-31T12:27:27;17.20;99.90
12708;DHT22;6418;50.824;4.718;2022-10-31T12:30:13;17.20;99.90
12708;DHT22;6418;50.824;4.718;2022-10-31T12:32:55;17.20;99.90
12708;DHT22;6418;50.824;4.718;2022-10-31T12:35:36;17.20;99.90
12708;DHT22;6418;50.824;4.718;2022-10-31T12:38:23;17.20;99.90
12708;DHT22;6418;50.824;4.718;2022-10-31T12:41:10;17.20;99.90
12708;DHT22;6418;50.824;4.718;2022-10-31T12:43:46;17.20;99.90
12708;DHT22;6418;50.824;4.718;2022-10-31T12:46:19;17.20;99.90
12708;DHT22;6418;50.824;4.718;2022-10-31T12:49:02;17.20;99.90
12708;DHT22;6418;50.824;4.718;2022-10-31T12:51:40;17.20;99.90
12708;DHT22;6418;50.824;4.718;2022-10-31T12:54:22;17.30;99.90
12708;DHT22;6418;50.824;4.718;2022-10-31T12:57:02;17.30;99.90
12708;DHT22;6418;50.824;4.718;2022-10-31T12:59:35;17.30;99.90
12708;DHT22;6418;50.824;4.718;2022-10-31T13:02:09;17.40;99.90
12708;DHT22;6418;50.824;4.718;2022-10-31T13:04:42;17.30;99.90
12708;DHT22;6418;50.824;4.718;2022-10-31T13:07:15;17.40;99.90
12708;DHT22;6418;50.824;4.718;2022-10-31T13:09:49;17.40;99.90
12708;DHT22;6418;50.824;4.718;2022-10-31T13:12:20;17.40;99.90
12708;DHT22;6418;50.824;4.718;2022-10-31T13:14:51;17.40;99.90
12708;DHT22;6418;50.824;4.718;2022-10-31T13:17:26;17.50;99.90
12708;DHT22;6418;50.824;4.718;2022-10-31T13:20:03;17.50;99.90
12708;DHT22;6418;50.824;4.718;2022-10-31T13:22:32;17.60;99.90
12708;DHT22;6418;50.824;4.718;2022-10-31T13:25:09;17.60;99.90
12708;DHT22;6418;50.824;4.718;2022-10-31T13:27:43;17.60;99.90
12708;DHT22;6418;50.824;4.718;2022-10-31T13:30:14;17.70;99.90
12708;DHT22;6418;50.824;4.718;2022-10-31T13:32:44;17.70;99.90
12708;DHT22;6418;50.824;4.718;2022-10-31T13:35:17;17.60;99.90
12708;DHT22;6418;50.824;4.718;2022-10-31T13:37:49;17.60;99.90
12708;DHT22;6418;50.824;4.718;2022-10-31T13:40:32;17.60;99.90
12708;DHT22;6418;50.824;4.718;2022-10-31T13:43:05;17.70;99.90
12708;DHT22;6418;50.824;4.718;2022-10-31T13:45:48;17.60;99.90
12708;DHT22;6418;50.824;4.718;2022-10-31T13:48:39;17.60;99.90
12708;DHT22;6418;50.824;4.718;2022-10-31T13:51:09;17.60;99.90
12708;DHT22;6418;50.824;4.718;2022-10-31T13:53:39;17.50;99.90
12708;DHT22;6418;50.824;4.718;2022-10-31T13:56:19;17.50;99.90
12708;DHT22;6418;50.824;4.718;2022-10-31T13:59:11;17.50;99.90
12708;DHT22;6418;50.824;4.718;2022-10-31T14:01:48;17.50;99.90
12708;DHT22;6418;50.824;4.718;2022-10-31T14:04:17;17.40;99.90
12708;DHT22;6418;50.824;4.718;2022-10-31T14:06:53;17.40;99.90
12708;DHT22;6418;50.824;4.718;2022-10-31T14:09:29;17.40;99.90
12708;DHT22;6418;50.824;4.718;2022-10-31T14:12:00;17.30;99.90
12708;DHT22;6418;50.824;4.718;2022-10-31T14:14:38;17.30;99.90
12708;DHT22;6418;50.824;4.718;2022-10-31T14:17:17;17.30;99.90
12708;DHT22;6418;50.824;4.718;2022-10-31T14:19:58;17.30;99.90
12708;DHT22;6418;50.824;4.718;2022-10-31T14:22:30;17.30;99.90
12708;DHT22;6418;50.824;4.718;2022-10-31T14:24:57;17.30;99.90
12708;DHT22;6418;50.824;4.718;2022-10-31T14:27:34;17.20;99.90
12708;DHT22;6418;50.824;4.718;2022-10-31T14:30:17;17.20;99.90
12708;DHT22;6418;50.824;4.718;2022-10-31T14:32:51;17.20;99.90
12708;DHT22;6418;50.824;4.718;2022-10-31T14:35:20;17.20;99.90
12708;DHT22;6418;50.824;4.718;2022-10-31T14:38:09;17.20;99.90
12708;DHT22;6418;50.824;4.718;2022-10-31T14:40:53;17.10;99.90
12708;DHT22;6418;50.824;4.718;2022-10-31T14:43:49;17.10;99.90
12708;DHT22;6418;50.824;4.718;2022-10-31T14:46:30;17.10;99.90
12708;DHT22;6418;50.824;4.718;2022-10-31T14:49:15;17.10;99.90
12708;DHT22;6418;50.824;4.718;2022-10-31T14:51:47;17.10;99.90
12708;DHT22;6418;50.824;4.718;2022-10-31T14:54:27;17.10;99.90
12708;DHT22;6418;50.824;4.718;2022-10-31T14:56:58;17.10;99.90
12708;DHT22;6418;50.824;4.718;2022-10-31T14:59:29;17.10;99.90
12708;DHT22;6418;50.824;4.718;2022-10-31T15:02:00;17.10;99.90
12708;DHT22;6418;50.824;4.718;2022-10-31T15:04:29;17.10;99.90
12708;DHT22;6418;50.824;4.718;2022-10-31T15:07:02;17.10;99.90
12708;DHT22;6418;50.824;4.718;2022-10-31T15:09:32;17.10;99.90
12708;DHT22;6418;50.824;4.718;2022-10-31T15:12:00;17.10;99.90
12708;DHT22;6418;50.824;4.718;2022-10-31T15:14:29;17.10;99.90
12708;DHT22;6418;50.824;4.718;2022-10-31T15:16:59;17.10;99.90
12708;DHT22;6418;50.824;4.718;2022-10-31T15:19:30;17.00;99.90
12708;DHT22;6418;50.824;4.718;2022-10-31T15:21:58;17.00;99.90
12708;DHT22;6418;50.824;4.718;2022-10-31T15:24:32;17.00;99.90
12708;DHT22;6418;50.824;4.718;2022-10-31T15:27:00;17.00;99.90
12708;DHT22;6418;50.824;4.718;2022-10-31T15:29:27;17.00;99.90
12708;DHT22;6418;50.824;4.718;2022-10-31T15:31:57;16.90;99.90
12708;DHT22;6418;50.824;4.718;2022-10-31T15:34:31;16.90;99.90
12708;DHT22;6418;50.824;4.718;2022-10-31T15:37:01;16.80;99.90
12708;DHT22;6418;50.824;4.718;2022-10-31T15:39:28;16.80;99.90
12708;DHT22;6418;50.824;4.718;2022-10-31T15:41:57;16.70;99.90
12708;DHT22;6418;50.824;4.718;2022-10-31T15:44:26;16.70;99.90
12708;DHT22;6418;50.824;4.718;2022-10-31T15:46:55;16.60;99.90
12708;DHT22;6418;50.824;4.718;2022-10-31T15:49:34;16.60;99.90
12708;DHT22;6418;50.824;4.718;2022-10-31T15:52:08;16.50;99.90
12708;DHT22;6418;50.824;4.718;2022-10-31T15:54:45;16.50;99.90
12708;DHT22;6418;50.824;4.718;2022-10-31T15:57:12;16.40;99.90
12708;DHT22;6418;50.824;4.718;2022-10-31T15:59:42;16.40;99.90
12708;DHT22;6418;50.824;4.718;2022-10-31T16:02:13;16.40;99.90
12708;DHT22;6418;50.824;4.718;2022-10-31T16:04:50;16.30;99.90
12708;DHT22;6418;50.824;4.718;2022-10-31T16:07:18;16.30;99.90
12708;DHT22;6418;50.824;4.718;2022-10-31T16:09:51;16.30;99.90
12708;DHT22;6418;50.824;4.718;2022-10-31T16:12:20;16.20;99.90